createdAt,value
2019-01-23T00:00:01.253Z,80.77
2019-01-23T00:02:30.345Z,87.17
2019-01-23T00:04:59.330Z,77.93
2019-01-23T00:07:28.286Z,87.00
2019-01-23T00:09:57.458Z,84.73
2019-01-23T00:12:26.458Z,87.37
2019-01-23T00:14:55.586Z,78.60
2019-01-23T00:17:24.613Z,73.33
2019-01-23T00:19:53.763Z,80.10
2019-01-23T00:22:22.836Z,74.27
2019-01-23T00:24:52.006Z,77.10
2019-01-23T00:27:21.110Z,81.30
2019-01-23T00:29:50.240Z,69.10
2019-01-23T00:32:19.294Z,85.23
2019-01-23T00:34:48.430Z,77.10
2019-01-23T00:37:17.441Z,76.93
2019-01-23T00:39:46.469Z,73.70
2019-01-23T00:42:15.435Z,70.77
2019-01-23T00:44:59.970Z,78.00
2019-01-23T00:47:28.991Z,74.17
2019-01-23T00:49:58.157Z,81.07
2019-01-23T00:52:27.227Z,72.80
2019-01-23T00:54:56.297Z,75.73
2019-01-23T00:57:25.243Z,76.97
2019-01-23T00:59:54.287Z,76.67
2019-01-23T01:02:23.376Z,78.70
2019-01-23T01:04:52.333Z,69.90
2019-01-23T01:07:21.315Z,69.60
2019-01-23T01:09:50.521Z,71.17
2019-01-23T01:12:19.601Z,67.80
2019-01-23T01:14:48.767Z,70.23
2019-01-23T01:17:17.725Z,68.67
2019-01-23T01:19:46.803Z,67.70
2019-01-23T01:22:15.818Z,62.43
2019-01-23T01:24:44.813Z,78.60
2019-01-23T01:27:13.839Z,69.23
2019-01-23T01:29:42.899Z,74.50
2019-01-23T01:32:11.887Z,68.43
2019-01-23T01:34:40.916Z,65.80
2019-01-23T01:37:09.983Z,64.17
2019-01-23T01:39:38.989Z,74.20
2019-01-23T01:42:07.979Z,61.37
2019-01-23T01:44:37.693Z,72.23
2019-01-23T01:47:06.691Z,64.47
2019-01-23T01:49:35.647Z,66.77
2019-01-23T01:52:04.675Z,64.30
2019-01-23T01:54:33.813Z,71.40
2019-01-23T01:57:02.815Z,61.37
2019-01-23T01:59:31.781Z,71.97
2019-01-23T02:02:00.786Z,61.70
2019-01-23T02:04:29.896Z,71.33
2019-01-23T02:06:58.925Z,68.40
2019-01-23T02:09:27.940Z,68.73
2019-01-23T02:11:56.890Z,66.90
2019-01-23T02:14:25.993Z,65.13
2019-01-23T02:16:55.050Z,68.40
2019-01-23T02:19:23.991Z,66.27
2019-01-23T02:21:52.984Z,66.53
2019-01-23T02:24:22.016Z,72.00
2019-01-23T02:26:51.117Z,71.13
2019-01-23T02:29:20.154Z,72.10
2019-01-23T02:31:49.188Z,72.20
2019-01-23T02:34:18.284Z,72.40
2019-01-23T02:36:47.320Z,67.63
2019-01-23T02:39:16.443Z,70.33
2019-01-23T02:41:45.510Z,74.80
2019-01-23T02:44:14.773Z,71.87
2019-01-23T02:46:43.832Z,72.03
2019-01-23T02:49:12.873Z,70.53
2019-01-23T02:51:41.974Z,74.03
2019-01-23T02:54:10.998Z,71.63
2019-01-23T02:56:39.944Z,66.90
2019-01-23T02:59:08.948Z,78.20
2019-01-23T03:01:37.935Z,78.47
2019-01-23T03:04:06.991Z,82.43
2019-01-23T03:06:36.034Z,73.00
2019-01-23T03:09:07.563Z,71.23
2019-01-23T03:11:36.625Z,69.97
2019-01-23T03:14:05.686Z,76.97
2019-01-23T03:16:34.774Z,74.50
2019-01-23T03:19:03.833Z,84.80
2019-01-23T03:21:32.839Z,73.93
2019-01-23T03:24:01.911Z,77.77
2019-01-23T03:26:30.987Z,88.27
2019-01-23T03:29:00.326Z,80.27
2019-01-23T03:31:29.290Z,78.53
2019-01-23T03:33:59.001Z,74.57
2019-01-23T03:36:28.145Z,73.60
2019-01-23T03:38:57.198Z,79.73
2019-01-23T03:41:26.940Z,77.93
2019-01-23T03:43:56.046Z,82.20
2019-01-23T03:46:25.051Z,83.40
2019-01-23T03:48:54.030Z,82.27
2019-01-23T03:51:23.180Z,76.70
2019-01-23T03:53:52.769Z,75.83
2019-01-23T03:56:21.881Z,81.17
2019-01-23T03:58:50.945Z,87.30
2019-01-23T04:01:19.920Z,78.73
2019-01-23T04:03:48.929Z,82.27
2019-01-23T04:06:17.955Z,83.73
2019-01-23T04:08:46.980Z,79.43
2019-01-23T04:11:16.016Z,83.77
2019-01-23T04:13:45.007Z,79.57
2019-01-23T04:16:14.002Z,83.27
2019-01-23T04:18:42.974Z,87.63
2019-01-23T04:21:11.980Z,78.13
2019-01-23T04:23:41.108Z,81.23
2019-01-23T04:26:10.097Z,87.73
2019-01-23T04:28:39.073Z,81.80
2019-01-23T04:31:09.012Z,81.53
2019-01-23T04:33:37.263Z,83.77
2019-01-23T04:36:06.335Z,83.90
2019-01-23T04:38:35.419Z,89.53
2019-01-23T04:41:04.505Z,92.13
2019-01-23T04:43:33.439Z,94.30
2019-01-23T04:46:02.434Z,81.07
2019-01-23T04:48:31.521Z,87.43
2019-01-23T04:57:33.967Z,77.00
2019-01-23T05:00:03.153Z,80.43
2019-01-23T05:02:32.137Z,73.00
2019-01-23T05:05:01.393Z,84.97
2019-01-23T05:07:30.386Z,83.13
2019-01-23T05:09:59.359Z,71.63
2019-01-23T05:12:28.495Z,84.77
2019-01-23T05:14:57.544Z,89.43
2019-01-23T05:17:26.594Z,85.87
2019-01-23T05:19:55.553Z,76.30
2019-01-23T05:22:24.559Z,81.83
2019-01-23T05:24:53.616Z,86.53
2019-01-23T05:27:22.607Z,77.87
2019-01-23T05:29:54.966Z,85.83
2019-01-23T05:32:20.694Z,79.93
2019-01-23T05:34:49.745Z,91.23
2019-01-23T05:37:18.737Z,80.20
2019-01-23T05:39:47.801Z,94.73
2019-01-23T05:42:16.901Z,87.37
2019-01-23T05:44:46.007Z,82.53
2019-01-23T05:47:15.143Z,92.77
2019-01-23T05:49:44.225Z,93.53
2019-01-23T05:52:13.844Z,90.67
2019-01-23T05:54:42.892Z,87.57
2019-01-23T05:57:11.958Z,85.20
2019-01-23T05:59:41.073Z,86.97
2019-01-23T06:02:10.233Z,85.63
2019-01-23T06:04:39.278Z,84.53
2019-01-23T06:07:08.409Z,84.90
2019-01-23T06:09:37.578Z,78.57
2019-01-23T06:12:06.869Z,74.33
2019-01-23T06:14:36.019Z,94.80
2019-01-23T06:17:05.181Z,77.20
2019-01-23T06:19:34.256Z,86.37
2019-01-23T06:22:03.475Z,85.00
2019-01-23T06:24:32.492Z,96.60
2019-01-23T06:27:01.677Z,87.83
2019-01-23T06:29:32.431Z,86.63
2019-01-23T06:32:01.521Z,89.40
2019-01-23T06:34:33.996Z,92.20
2019-01-23T06:37:03.091Z,93.43
2019-01-23T06:39:32.143Z,104.30
2019-01-23T06:42:01.133Z,96.60
2019-01-23T06:44:30.322Z,91.63
2019-01-23T06:46:59.323Z,103.60
2019-01-23T06:49:28.369Z,93.63
2019-01-23T06:51:57.342Z,110.73
2019-01-23T06:54:26.455Z,96.63
2019-01-23T06:56:55.557Z,93.00
2019-01-23T06:59:24.647Z,107.20
2019-01-23T07:01:53.631Z,92.13
2019-01-23T07:04:22.814Z,102.27
2019-01-23T07:06:52.075Z,100.20
2019-01-23T07:09:21.467Z,111.40
2019-01-23T07:11:50.600Z,102.67
2019-01-23T07:14:19.727Z,105.47
2019-01-23T07:16:48.789Z,108.37
2019-01-23T07:19:20.252Z,107.93
2019-01-23T07:21:49.593Z,107.57
2019-01-23T07:24:18.837Z,114.37
2019-01-23T07:26:47.989Z,116.50
2019-01-23T07:29:17.397Z,116.30
2019-01-23T07:31:47.709Z,121.30
2019-01-23T07:34:18.329Z,116.60
2019-01-23T07:36:47.836Z,111.13
2019-01-23T07:39:17.249Z,112.33
2019-01-23T07:41:46.575Z,112.03
2019-01-23T07:44:17.192Z,116.90
2019-01-23T07:46:47.327Z,124.97
2019-01-23T07:49:17.557Z,121.17
2019-01-23T07:51:47.276Z,115.73
2019-01-23T07:54:17.243Z,131.57
2019-01-23T07:56:46.872Z,119.10
2019-01-23T07:59:15.984Z,122.63
2019-01-23T08:01:48.308Z,126.43
2019-01-23T08:04:17.753Z,129.03
2019-01-23T08:06:47.295Z,136.07
2019-01-23T08:09:17.980Z,138.87
2019-01-23T08:11:47.663Z,134.10
2019-01-23T08:14:16.931Z,139.83
2019-01-23T08:16:46.715Z,129.27
2019-01-23T08:19:16.033Z,130.07
2019-01-23T08:21:45.207Z,131.87
2019-01-23T08:24:18.258Z,129.10
2019-01-23T08:26:48.556Z,143.47
2019-01-23T08:29:17.887Z,133.50
2019-01-23T08:31:47.058Z,144.97
2019-01-23T08:34:16.191Z,141.87
2019-01-23T08:37:06.719Z,151.27
2019-01-23T08:39:36.006Z,144.80
2019-01-23T08:42:08.033Z,152.93
2019-01-23T08:44:37.325Z,133.83
2019-01-23T08:47:06.547Z,151.47
2019-01-23T08:49:35.913Z,149.90
2019-01-23T08:58:50.414Z,146.47
2019-01-23T09:01:19.632Z,173.17
2019-01-23T09:03:50.969Z,168.90
2019-01-23T09:06:20.197Z,157.40
2019-01-23T09:08:49.517Z,153.83
2019-01-23T09:11:19.199Z,160.33
2019-01-23T09:13:48.663Z,167.07
2019-01-23T09:16:17.914Z,173.40
2019-01-23T09:18:47.118Z,163.47
2019-01-23T09:21:17.913Z,180.00
2019-01-23T09:23:47.361Z,166.90
2019-01-23T09:26:16.504Z,159.30
2019-01-23T09:28:45.630Z,165.53
2019-01-23T09:33:26.847Z,160.67
2019-01-23T09:36:48.917Z,170.77
2019-01-23T09:39:28.546Z,164.40
2019-01-23T09:42:10.760Z,156.97
2019-01-23T09:47:19.311Z,159.87
2019-01-23T09:50:05.532Z,162.33
2019-01-23T09:53:14.542Z,167.77
2019-01-23T09:55:43.734Z,182.30
2019-01-23T09:58:13.016Z,183.13
2019-01-23T10:00:42.384Z,167.47
2019-01-23T10:03:12.441Z,173.17
2019-01-23T10:05:43.580Z,181.50
2019-01-23T10:08:12.641Z,176.03
2019-01-23T10:10:41.794Z,184.43
2019-01-23T10:13:11.038Z,167.90
2019-01-23T10:15:45.022Z,192.37
2019-01-23T10:18:14.394Z,187.93
2019-01-23T10:20:43.634Z,154.93
2019-01-23T10:23:12.727Z,145.27
2019-01-23T10:25:43.232Z,175.27
2019-01-23T10:28:12.979Z,180.30
2019-01-23T10:30:42.274Z,172.47
2019-01-23T10:33:13.660Z,183.10
2019-01-23T10:35:44.060Z,175.40
2019-01-23T10:38:13.588Z,180.00
2019-01-23T10:40:43.316Z,175.23
2019-01-23T10:45:59.567Z,181.63
2019-01-23T10:48:38.094Z,179.83
2019-01-23T10:51:05.462Z,172.57
2019-01-23T10:53:41.273Z,178.67
2019-01-23T10:56:10.926Z,190.17
2019-01-23T10:58:41.652Z,176.93
2019-01-23T11:01:13.447Z,158.97
2019-01-23T11:03:42.502Z,174.00
2019-01-23T11:06:12.254Z,187.33
2019-01-23T11:08:41.794Z,183.07
2019-01-23T11:11:10.938Z,180.93
2019-01-23T11:13:40.350Z,175.97
2019-01-23T11:16:10.294Z,183.03
2019-01-23T11:18:40.712Z,163.77
2019-01-23T11:21:10.417Z,161.53
2019-01-23T11:23:39.952Z,174.83
2019-01-23T11:26:10.175Z,174.20
2019-01-23T11:28:39.820Z,172.13
2019-01-23T11:31:09.573Z,171.93
2019-01-23T11:33:38.773Z,177.43
2019-01-23T11:36:08.385Z,176.83
2019-01-23T11:38:38.548Z,173.43
2019-01-23T11:41:08.376Z,183.97
2019-01-23T11:43:38.342Z,152.40
2019-01-23T11:46:08.460Z,172.07
2019-01-23T11:48:38.601Z,172.40
2019-01-23T11:51:08.306Z,160.17
2019-01-23T11:53:37.534Z,153.97
2019-01-23T11:56:08.765Z,169.23
2019-01-23T11:58:36.616Z,176.43
2019-01-23T12:01:05.875Z,141.90
2019-01-23T12:03:34.925Z,176.97
2019-01-23T12:06:05.571Z,167.33
2019-01-23T12:08:34.702Z,164.83
2019-01-23T12:11:03.990Z,157.47
2019-01-23T12:13:33.143Z,163.03
2019-01-23T12:16:02.780Z,166.43
2019-01-23T12:18:31.862Z,170.17
2019-01-23T12:21:01.016Z,168.53
2019-01-23T12:23:30.138Z,175.17
2019-01-23T12:26:01.812Z,157.93
2019-01-23T12:28:31.542Z,168.10
2019-01-23T12:31:01.122Z,173.80
2019-01-23T12:33:30.655Z,164.90
2019-01-23T12:35:59.866Z,161.43
2019-01-23T12:38:29.246Z,176.73
2019-01-23T12:40:58.818Z,160.20
2019-01-23T12:43:28.530Z,171.37
2019-01-23T12:45:57.870Z,166.27
2019-01-23T12:48:27.128Z,163.30
2019-01-23T12:50:56.264Z,163.63
2019-01-23T12:53:25.984Z,175.57
2019-01-23T12:55:55.344Z,170.93
2019-01-23T12:58:24.642Z,189.70
2019-01-23T13:00:54.250Z,182.07
2019-01-23T13:03:24.138Z,164.33
2019-01-23T13:05:59.647Z,143.23
2019-01-23T13:08:30.080Z,152.10
2019-01-23T13:10:59.398Z,185.80
2019-01-23T13:13:28.542Z,195.00
2019-01-23T13:15:57.975Z,166.60
2019-01-23T13:18:27.099Z,167.57
2019-01-23T13:20:57.434Z,158.10
2019-01-23T13:23:33.020Z,149.90
2019-01-23T13:26:02.206Z,155.57
2019-01-23T13:28:32.328Z,154.27
2019-01-23T13:31:01.370Z,162.83
2019-01-23T13:33:30.642Z,157.87
2019-01-23T13:36:00.534Z,162.43
2019-01-23T13:38:29.815Z,155.40
2019-01-23T13:40:59.217Z,159.73
2019-01-23T13:43:28.443Z,159.63
2019-01-23T13:45:58.955Z,145.47
2019-01-23T13:48:31.947Z,164.00
2019-01-23T13:51:03.048Z,146.67
2019-01-23T13:53:35.904Z,151.77
2019-01-23T13:56:06.288Z,138.27
2019-01-23T13:58:51.265Z,116.77
2019-01-23T14:01:20.706Z,142.10
2019-01-23T14:03:53.090Z,150.47
2019-01-23T14:06:22.756Z,127.63
2019-01-23T14:08:52.890Z,138.27
2019-01-23T14:11:23.033Z,137.47
2019-01-23T14:13:52.322Z,130.17
2019-01-23T14:16:21.389Z,138.93
2019-01-23T14:18:59.686Z,128.43
2019-01-23T14:24:07.600Z,133.07
2019-01-23T14:26:36.959Z,118.57
2019-01-23T14:29:06.302Z,128.47
2019-01-23T14:31:35.943Z,120.93
2019-01-23T14:34:07.289Z,117.27
2019-01-23T14:36:39.940Z,119.63
2019-01-23T14:39:12.544Z,120.27
2019-01-23T14:41:45.048Z,120.00
2019-01-23T14:44:14.502Z,103.50
2019-01-23T14:46:48.774Z,103.73
2019-01-23T14:49:22.232Z,100.67
2019-01-23T14:51:54.338Z,110.60
2019-01-23T14:54:24.103Z,100.77
2019-01-23T14:57:01.365Z,107.97
2019-01-23T14:59:31.372Z,111.03
2019-01-23T15:04:47.099Z,102.50
2019-01-23T15:07:17.877Z,105.30
2019-01-23T15:09:50.327Z,104.00
2019-01-23T15:12:28.846Z,93.63
2019-01-23T15:15:05.509Z,102.83
2019-01-23T15:17:35.283Z,85.43
2019-01-23T15:20:07.242Z,77.63
2019-01-23T15:22:40.128Z,96.97
2019-01-23T15:25:14.352Z,89.33
2019-01-23T15:27:48.526Z,82.03
2019-01-23T15:30:20.902Z,87.43
2019-01-23T15:32:50.065Z,71.17
2019-01-23T15:35:19.415Z,94.23
2019-01-23T15:37:48.547Z,73.83
2019-01-23T15:40:26.875Z,64.03
2019-01-23T15:42:56.003Z,64.43
2019-01-23T15:45:25.143Z,76.47
2019-01-23T15:47:54.448Z,64.40
2019-01-23T15:50:24.418Z,69.80
2019-01-23T15:52:53.542Z,69.60
2019-01-23T15:55:23.441Z,65.67
2019-01-23T15:57:53.416Z,61.07
2019-01-23T16:00:27.798Z,68.57
2019-01-23T16:02:56.865Z,63.20
2019-01-23T16:05:28.310Z,65.87
2019-01-23T16:07:58.690Z,60.60
2019-01-23T16:10:27.776Z,61.03
2019-01-23T16:12:56.902Z,69.10
2019-01-23T16:15:27.001Z,57.70
2019-01-23T16:17:57.448Z,57.40
2019-01-23T16:20:25.349Z,59.27
2019-01-23T16:22:54.755Z,56.33
2019-01-23T16:25:23.920Z,44.97
2019-01-23T16:27:52.949Z,54.33
2019-01-23T16:30:24.706Z,53.17
2019-01-23T16:32:53.776Z,49.03
2019-01-23T16:35:23.354Z,50.73
2019-01-23T16:37:52.483Z,45.43
2019-01-23T16:40:21.484Z,44.93
2019-01-23T16:42:50.584Z,50.83
2019-01-23T16:45:25.448Z,55.70
2019-01-23T16:48:00.801Z,50.90
2019-01-23T16:50:30.108Z,47.40
2019-01-23T16:53:00.084Z,42.03
2019-01-23T16:55:29.180Z,46.73
2019-01-23T16:57:58.208Z,46.70
2019-01-23T17:00:27.510Z,46.80
2019-01-23T17:03:05.671Z,39.67
2019-01-23T17:05:41.421Z,45.47
2019-01-23T17:08:13.118Z,38.47
2019-01-23T17:10:44.394Z,47.07
2019-01-23T17:13:18.419Z,47.10
2019-01-23T17:15:55.428Z,42.47
2019-01-23T17:18:38.356Z,44.70
2019-01-23T17:21:09.137Z,48.90
2019-01-23T17:23:42.081Z,37.67
2019-01-23T17:26:16.036Z,44.33
2019-01-23T17:28:53.261Z,44.23
2019-01-23T17:31:26.087Z,47.53
2019-01-23T17:34:00.056Z,39.90
2019-01-23T17:36:29.544Z,37.80
2019-01-23T17:38:58.935Z,39.57
2019-01-23T17:41:30.790Z,50.53
2019-01-23T17:44:00.691Z,43.07
2019-01-23T17:46:30.041Z,42.40
2019-01-23T17:49:04.840Z,43.90
2019-01-23T17:51:38.882Z,50.80
2019-01-23T17:54:08.058Z,45.40
2019-01-23T17:56:37.165Z,47.23
2019-01-23T17:59:12.028Z,47.03
2019-01-23T18:01:41.293Z,40.93
2019-01-23T18:04:10.524Z,44.10
2019-01-23T18:06:42.150Z,38.10
2019-01-23T18:09:16.780Z,45.87
2019-01-23T18:11:48.060Z,44.77
2019-01-23T18:14:17.994Z,39.37
2019-01-23T18:16:47.812Z,47.43
2019-01-23T18:19:17.009Z,49.43
2019-01-23T18:21:46.086Z,49.37
2019-01-23T18:24:15.252Z,46.40
2019-01-23T18:26:45.287Z,42.50
2019-01-23T18:29:14.474Z,46.50
2019-01-23T18:31:48.390Z,44.87
2019-01-23T18:34:51.360Z,38.50
2019-01-23T18:37:36.844Z,45.80
2019-01-23T18:40:18.177Z,46.30
2019-01-23T18:42:59.464Z,43.53
2019-01-23T18:46:09.339Z,49.77
2019-01-23T18:48:57.178Z,47.37
2019-01-23T18:51:37.992Z,49.17
2019-01-23T18:54:07.856Z,42.63
2019-01-23T18:56:37.774Z,45.27
2019-01-23T18:59:10.794Z,48.00
2019-01-23T19:01:41.235Z,46.97
2019-01-23T19:04:23.938Z,45.27
2019-01-23T19:06:54.826Z,46.10
2019-01-23T19:09:23.910Z,45.87
2019-01-23T19:11:52.891Z,43.23
2019-01-23T19:14:24.601Z,53.97
2019-01-23T19:16:52.385Z,42.43
2019-01-23T19:19:22.422Z,45.63
2019-01-23T19:21:55.193Z,45.60
2019-01-23T19:24:21.952Z,45.53
2019-01-23T19:26:52.464Z,43.37
2019-01-23T20:19:31.224Z,44.33
2019-01-23T20:22:33.146Z,40.23
2019-01-23T20:25:43.177Z,39.93
2019-01-23T20:28:26.418Z,42.97
2019-01-23T20:31:07.826Z,49.00
2019-01-23T20:33:46.544Z,49.40
2019-01-23T20:36:17.684Z,42.77
2019-01-23T20:39:12.592Z,46.33
2019-01-23T20:41:48.092Z,47.00
2019-01-23T20:44:20.960Z,48.70
2019-01-23T20:47:00.408Z,51.40
2019-01-23T20:49:34.041Z,49.30
2019-01-23T20:52:07.816Z,47.50
2019-01-23T20:54:42.408Z,50.30
2019-01-23T20:57:11.518Z,43.37
2019-01-23T21:00:07.464Z,46.33
2019-01-23T21:03:01.826Z,48.97
2019-01-23T21:05:42.083Z,47.20
2019-01-23T21:08:24.914Z,49.90
2019-01-23T21:10:56.128Z,45.63
2019-01-23T21:13:29.009Z,42.20
2019-01-23T21:16:19.549Z,49.03
2019-01-23T21:18:48.749Z,41.33
2019-01-23T21:24:14.035Z,48.23
2019-01-23T21:26:55.273Z,47.20
2019-01-23T21:29:32.761Z,46.20
2019-01-23T21:32:17.214Z,49.80
2019-01-23T21:34:48.662Z,50.93
2019-01-23T21:37:18.995Z,51.13
2019-01-23T21:39:48.094Z,45.97
2019-01-23T21:42:17.198Z,49.90
2019-01-23T21:44:46.203Z,43.43
2019-01-23T21:47:15.422Z,46.47
2019-01-23T21:49:44.477Z,42.57
2019-01-23T21:52:13.678Z,43.90
2019-01-23T21:54:44.482Z,46.73
2019-01-23T21:57:13.546Z,45.00
2019-01-23T21:59:42.590Z,48.93
2019-01-23T22:02:11.664Z,51.30
2019-01-23T22:04:40.684Z,49.83
2019-01-23T22:07:09.677Z,50.33
2019-01-23T22:09:39.667Z,50.03
2019-01-23T22:12:08.758Z,49.17
2019-01-23T22:14:39.162Z,42.67
2019-01-23T22:17:08.467Z,43.87
2019-01-23T22:19:37.775Z,46.07
2019-01-23T22:22:07.399Z,53.90
2019-01-23T22:24:36.800Z,48.00
2019-01-23T22:27:05.934Z,45.07
2019-01-23T22:29:37.121Z,45.30
2019-01-23T22:32:06.129Z,48.03
2019-01-23T22:34:35.404Z,40.83
2019-01-23T22:37:04.590Z,41.60
2019-01-23T22:39:33.615Z,48.00
2019-01-23T22:42:03.088Z,43.40
2019-01-23T22:44:32.650Z,41.83
2019-01-23T22:47:01.836Z,40.00
2019-01-23T22:49:31.080Z,38.60
2019-01-23T22:52:01.965Z,41.87
2019-01-23T22:54:31.036Z,39.47
2019-01-23T22:57:00.741Z,41.87
2019-01-23T22:59:29.926Z,41.03
2019-01-23T23:02:00.115Z,43.03
2019-01-23T23:04:29.108Z,41.63
2019-01-23T23:06:58.168Z,50.60
2019-01-23T23:09:27.397Z,41.83
2019-01-23T23:11:56.394Z,42.53
2019-01-23T23:14:25.629Z,42.87
2019-01-23T23:16:54.843Z,45.87
2019-01-23T23:19:24.017Z,42.83
2019-01-23T23:21:53.123Z,46.27
2019-01-23T23:24:22.197Z,47.93
2019-01-23T23:26:51.486Z,46.13
2019-01-23T23:29:20.662Z,45.17
2019-01-23T23:31:49.807Z,46.07
2019-01-23T23:34:19.330Z,45.20
2019-01-23T23:36:48.440Z,42.40
2019-01-23T23:39:19.882Z,48.53
2019-01-23T23:41:49.442Z,46.90
2019-01-23T23:44:20.582Z,51.70
2019-01-23T23:46:49.626Z,42.27
2019-01-23T23:49:18.784Z,44.83
2019-01-23T23:51:48.032Z,46.23
2019-01-23T23:54:17.166Z,44.77
2019-01-23T23:56:46.202Z,47.47
2019-01-23T23:59:28.770Z,43.33
